createdAt,value
2018-04-16T04:16:59.094Z,90.80
2018-04-16T04:19:26.634Z,90.70
2018-04-16T04:21:54.180Z,90.70
2018-04-16T04:24:34.299Z,90.80
2018-04-16T04:27:15.466Z,91.10
2018-04-16T04:29:54.942Z,90.80
2018-04-16T04:32:26.619Z,90.90
2018-04-16T04:34:57.050Z,90.90
2018-04-16T04:37:24.673Z,90.80
2018-04-16T04:39:52.117Z,90.80
2018-04-16T04:42:20.593Z,90.80
2018-04-16T04:44:48.143Z,90.80
2018-04-16T04:47:15.599Z,90.70
2018-04-16T04:49:44.093Z,90.70
2018-04-16T04:52:12.076Z,90.70
2018-04-16T04:54:39.592Z,90.70
2018-04-16T04:57:07.077Z,90.70
2018-04-16T04:59:34.523Z,90.70
2018-04-16T05:02:02.183Z,90.80
2018-04-16T05:04:29.733Z,90.90
2018-04-16T05:06:57.198Z,90.90
2018-04-16T05:09:24.628Z,91.00
2018-04-16T05:11:52.960Z,90.90
2018-04-16T05:14:20.402Z,90.90
2018-04-16T05:16:47.864Z,90.90
2018-04-16T05:19:15.305Z,90.80
2018-04-16T05:21:42.763Z,90.70
2018-04-16T05:24:10.324Z,90.70
2018-04-16T05:26:37.767Z,90.70
2018-04-16T05:29:05.238Z,90.80
2018-04-16T05:31:32.696Z,90.70
2018-04-16T05:34:00.255Z,90.70
2018-04-16T05:36:27.697Z,90.70
2018-04-16T05:38:55.151Z,90.70
2018-04-16T05:41:22.734Z,90.60
2018-04-16T05:43:50.277Z,90.50
2018-04-16T05:46:17.773Z,90.40
2018-04-16T05:48:45.237Z,90.30
2018-04-16T05:51:12.688Z,90.20
2018-04-16T05:53:41.535Z,90.10
2018-04-16T05:56:09.811Z,90.00
2018-04-16T05:58:38.103Z,90.00
2018-04-16T06:01:07.839Z,89.80
2018-04-16T06:03:37.682Z,89.70
2018-04-16T06:06:05.190Z,89.50
2018-04-16T06:08:34.992Z,89.20
2018-04-16T06:11:02.524Z,89.30
2018-04-16T06:13:30.774Z,89.30
2018-04-16T06:15:58.220Z,89.30
2018-04-16T06:18:25.670Z,88.80
2018-04-16T06:20:57.121Z,88.60
2018-04-16T06:23:24.682Z,88.30
2018-04-16T06:25:52.137Z,88.20
2018-04-16T06:28:21.715Z,87.80
2018-04-16T06:30:49.243Z,87.20
2018-04-16T06:33:16.725Z,86.60
2018-04-16T06:35:44.258Z,85.90
2018-04-16T06:38:11.735Z,85.30
2018-04-16T06:40:40.025Z,85.10
2018-04-16T06:43:07.480Z,85.10
2018-04-16T06:45:35.768Z,84.80
2018-04-16T06:48:03.309Z,84.80
2018-04-16T06:50:31.524Z,84.40
2018-04-16T06:53:05.192Z,84.50
2018-04-16T06:55:32.588Z,84.40
2018-04-16T06:58:00.102Z,84.00
2018-04-16T07:00:27.639Z,83.60
2018-04-16T07:02:56.125Z,82.80
2018-04-16T07:05:25.138Z,83.00
2018-04-16T07:07:57.344Z,82.70
2018-04-16T07:10:25.597Z,82.50
2018-04-16T07:12:53.191Z,82.50
2018-04-16T07:15:20.777Z,82.60
2018-04-16T07:17:50.245Z,82.00
2018-04-16T07:20:17.711Z,82.50
2018-04-16T07:22:45.179Z,82.80
2018-04-16T07:25:12.624Z,82.60
2018-04-16T07:27:40.117Z,82.80
2018-04-16T07:30:09.513Z,82.90
2018-04-16T07:32:38.945Z,83.20
2018-04-16T07:35:07.227Z,84.10
2018-04-16T07:37:35.540Z,83.20
2018-04-16T07:40:03.009Z,83.10
2018-04-16T07:42:30.495Z,83.00
2018-04-16T07:44:58.734Z,82.10
2018-04-16T07:47:27.013Z,82.20
2018-04-16T07:49:54.504Z,82.10
2018-04-16T07:52:21.941Z,81.70
2018-04-16T07:54:49.385Z,81.40
2018-04-16T07:57:16.855Z,81.30
2018-04-16T07:59:44.310Z,81.40
2018-04-16T08:02:11.756Z,81.50
2018-04-16T08:04:41.372Z,81.80
2018-04-16T08:07:08.862Z,81.90
2018-04-16T08:09:36.343Z,81.90
2018-04-16T08:12:04.314Z,81.30
2018-04-16T08:14:33.613Z,81.50
2018-04-16T08:17:01.932Z,81.20
2018-04-16T08:19:29.383Z,81.10
2018-04-16T08:21:57.239Z,81.60
2018-04-16T08:24:25.096Z,80.70
2018-04-16T08:26:52.582Z,79.80
2018-04-16T08:29:20.018Z,79.10
2018-04-16T08:31:47.481Z,79.20
2018-04-16T08:34:15.273Z,78.40
2018-04-16T08:36:43.061Z,79.10
2018-04-16T08:39:11.694Z,76.70
2018-04-16T08:41:39.198Z,76.70
2018-04-16T08:44:06.671Z,76.30
2018-04-16T08:46:34.113Z,75.00
2018-04-16T08:49:01.554Z,75.40
2018-04-16T08:51:29.012Z,74.10
2018-04-16T08:53:56.472Z,73.60
2018-04-16T08:56:23.904Z,73.40
2018-04-16T08:58:51.360Z,73.40
2018-04-16T09:01:19.234Z,72.50
2018-04-16T09:03:47.684Z,72.20
2018-04-16T09:06:15.170Z,72.10
2018-04-16T09:08:42.672Z,71.70
2018-04-16T09:11:10.090Z,72.60
2018-04-16T09:13:37.556Z,72.90
2018-04-16T09:16:05.012Z,72.70
2018-04-16T09:18:32.505Z,73.00
2018-04-16T09:20:59.967Z,72.80
2018-04-16T09:23:28.368Z,73.10
2018-04-16T09:25:55.837Z,73.70
2018-04-16T09:28:25.301Z,74.90
2018-04-16T09:30:52.803Z,74.80
2018-04-16T09:33:20.271Z,75.20
2018-04-16T09:35:52.385Z,74.90
2018-04-16T09:38:25.428Z,74.70
2018-04-16T09:40:54.492Z,74.70
2018-04-16T09:43:24.918Z,74.40
2018-04-16T09:45:55.444Z,74.30
2018-04-16T09:48:26.641Z,73.40
2018-04-16T09:50:54.209Z,73.40
2018-04-16T09:53:21.664Z,71.80
2018-04-16T09:55:49.201Z,70.40
2018-04-16T09:58:17.796Z,66.30
2018-04-16T10:00:51.062Z,67.00
2018-04-16T10:03:18.647Z,67.30
2018-04-16T10:05:46.148Z,67.30
2018-04-16T10:08:13.598Z,68.10
2018-04-16T10:10:41.073Z,68.80
2018-04-16T10:13:08.531Z,67.80
2018-04-16T10:15:36.937Z,66.50
2018-04-16T10:18:06.524Z,66.30
2018-04-16T10:20:34.067Z,66.30
2018-04-16T10:23:01.579Z,66.80
2018-04-16T10:25:29.020Z,66.60
2018-04-16T10:27:56.760Z,65.90
2018-04-16T10:30:24.335Z,66.60
2018-04-16T10:32:52.652Z,66.80
2018-04-16T10:35:20.257Z,66.80
2018-04-16T10:37:47.788Z,65.80
2018-04-16T10:40:15.272Z,64.80
2018-04-16T10:42:42.809Z,62.50
2018-04-16T10:45:10.885Z,61.90
2018-04-16T10:47:39.190Z,62.70
2018-04-16T10:50:10.600Z,63.90
2018-04-16T10:52:38.074Z,63.90
2018-04-16T10:55:05.528Z,63.30
2018-04-16T10:57:32.990Z,64.50
2018-04-16T11:00:00.451Z,64.80
2018-04-16T11:02:27.907Z,65.30
2018-04-16T11:04:55.386Z,66.30
2018-04-16T11:07:24.971Z,66.90
2018-04-16T11:09:53.335Z,62.70
2018-04-16T11:12:20.784Z,61.00
2018-04-16T11:14:48.241Z,60.20
2018-04-16T11:17:15.734Z,61.30
2018-04-16T11:19:43.977Z,59.20
2018-04-16T11:22:12.209Z,59.20
2018-04-16T11:24:41.374Z,59.30
2018-04-16T11:27:08.856Z,59.30
2018-04-16T11:29:38.069Z,60.40
2018-04-16T11:32:05.504Z,60.30
2018-04-16T11:34:34.160Z,59.30
2018-04-16T11:37:03.360Z,59.20
2018-04-16T11:39:38.009Z,58.80
2018-04-16T11:42:05.503Z,59.30
2018-04-16T11:44:33.960Z,59.20
2018-04-16T11:47:01.514Z,58.60
2018-04-16T11:49:29.870Z,59.00
2018-04-16T11:51:57.556Z,59.00
2018-04-16T11:54:26.006Z,59.60
2018-04-16T11:56:53.461Z,59.90
2018-04-16T11:59:20.922Z,58.60
2018-04-16T12:01:49.128Z,58.60
2018-04-16T12:04:16.671Z,58.60
2018-04-16T12:06:44.893Z,57.60
2018-04-16T12:09:12.338Z,57.50
2018-04-16T12:11:39.933Z,56.80
2018-04-16T12:14:07.497Z,56.70
2018-04-16T12:16:37.116Z,56.50
2018-04-16T12:19:04.522Z,57.40
2018-04-16T12:21:32.907Z,57.20
2018-04-16T12:24:00.345Z,57.10
2018-04-16T12:26:28.657Z,57.00
2018-04-16T12:28:56.144Z,57.00
2018-04-16T12:31:23.667Z,57.30
2018-04-16T12:33:51.853Z,57.70
2018-04-16T12:36:20.412Z,57.60
2018-04-16T12:38:47.953Z,58.20
2018-04-16T12:41:16.247Z,58.10
2018-04-16T12:43:43.713Z,58.00
2018-04-16T12:46:11.349Z,57.50
2018-04-16T12:48:38.827Z,56.60
2018-04-16T12:51:06.301Z,56.80
2018-04-16T12:53:33.737Z,57.40
2018-04-16T12:56:02.330Z,56.20
2018-04-16T12:58:29.875Z,56.10
2018-04-16T13:00:58.161Z,55.70
2018-04-16T13:03:26.471Z,56.50
2018-04-16T13:05:53.994Z,56.50
2018-04-16T13:08:21.447Z,56.70
2018-04-16T13:10:50.956Z,56.80
2018-04-16T13:13:19.350Z,56.80
2018-04-16T13:15:50.924Z,56.70
2018-04-16T13:18:18.664Z,56.50
2018-04-16T13:20:46.125Z,55.70
2018-04-16T13:23:13.572Z,56.50
2018-04-16T13:28:40.332Z,55.70
2018-04-16T13:31:07.895Z,55.60
2018-04-16T13:33:39.436Z,55.30
2018-04-16T13:36:07.765Z,55.40
2018-04-16T13:38:35.243Z,55.40
2018-04-16T13:41:03.727Z,55.10
2018-04-16T13:43:32.138Z,54.40
2018-04-16T13:46:00.673Z,53.10
2018-04-16T13:48:28.107Z,53.10
2018-04-16T13:50:55.584Z,51.90
2018-04-16T13:53:23.023Z,53.40
2018-04-16T13:55:52.800Z,51.70
2018-04-16T13:58:20.357Z,51.70
2018-04-16T14:00:49.513Z,52.30
2018-04-16T14:03:16.959Z,52.30
2018-04-16T14:05:45.392Z,52.40
2018-04-16T14:08:13.711Z,51.90
2018-04-16T14:10:41.201Z,51.90
2018-04-16T14:13:08.685Z,51.80
2018-04-16T14:15:36.341Z,50.70
2018-04-16T14:18:03.793Z,50.50
2018-04-16T14:20:31.272Z,49.60
2018-04-16T14:22:58.824Z,50.00
2018-04-16T14:25:27.180Z,51.00
2018-04-16T14:27:54.616Z,50.90
2018-04-16T14:30:22.083Z,51.20
2018-04-16T14:35:23.326Z,50.70
2018-04-16T14:37:50.796Z,50.40
2018-04-16T14:40:18.244Z,50.60
2018-04-16T14:42:45.702Z,50.70
2018-04-16T14:45:14.237Z,50.50
2018-04-16T14:47:43.035Z,50.60
2018-04-16T14:50:13.251Z,50.20
2018-04-16T14:52:41.546Z,49.80
2018-04-16T14:55:10.024Z,50.40
2018-04-16T14:57:37.566Z,50.60
2018-04-16T15:00:05.980Z,50.50
2018-04-16T15:02:33.459Z,50.50
2018-04-16T15:05:00.949Z,49.80
2018-04-16T15:07:28.556Z,49.90
2018-04-16T15:09:56.058Z,50.20
2018-04-16T15:12:23.527Z,49.70
2018-04-16T15:14:51.881Z,50.10
2018-04-16T15:17:22.045Z,50.10
2018-04-16T15:19:50.305Z,50.90
2018-04-16T15:22:18.710Z,50.70
2018-04-16T15:24:46.353Z,50.70
2018-04-16T15:27:14.588Z,51.30
2018-04-16T15:29:42.137Z,51.20
2018-04-16T15:32:10.470Z,50.70
2018-04-16T15:34:38.892Z,50.40
2018-04-16T15:37:06.428Z,50.40
2018-04-16T15:39:33.999Z,51.00
2018-04-16T15:42:02.695Z,50.40
2018-04-16T15:44:30.495Z,50.40
2018-04-16T15:46:58.127Z,50.30
2018-04-16T15:49:25.647Z,50.10
2018-04-16T15:51:54.349Z,50.40
2018-04-16T15:54:21.898Z,50.30
2018-04-16T15:56:49.361Z,50.30
2018-04-16T15:59:16.857Z,51.10
2018-04-16T16:01:44.315Z,51.50
2018-04-16T16:04:11.761Z,51.70
2018-04-16T16:06:39.396Z,51.40
2018-04-16T16:09:10.715Z,51.00
2018-04-16T16:11:39.059Z,50.50
2018-04-16T16:14:11.568Z,50.40
2018-04-16T16:16:39.298Z,51.20
2018-04-16T16:19:09.554Z,50.30
2018-04-16T16:21:38.096Z,50.80
2018-04-16T16:24:05.902Z,50.20
2018-04-16T16:26:34.251Z,50.50
2018-04-16T16:29:05.147Z,50.50
2018-04-16T16:31:32.648Z,51.20
2018-04-16T16:34:00.133Z,51.60
2018-04-16T16:36:27.612Z,51.50
2018-04-16T16:38:55.846Z,51.80
2018-04-16T16:41:23.284Z,51.70
2018-04-16T16:43:50.849Z,52.60
2018-04-16T16:46:18.386Z,52.20
2018-04-16T16:48:45.905Z,52.50
2018-04-16T16:51:13.348Z,53.30
2018-04-16T16:53:40.874Z,53.70
2018-04-16T16:56:08.333Z,54.00
2018-04-16T16:58:35.810Z,54.40
2018-04-16T17:01:03.264Z,54.50
2018-04-16T17:03:32.217Z,55.00
2018-04-16T17:06:02.686Z,54.80
2018-04-16T17:08:31.689Z,54.90
2018-04-16T17:10:59.141Z,55.10
2018-04-16T17:13:26.593Z,54.90
2018-04-16T17:15:54.103Z,54.40
2018-04-16T17:18:21.559Z,55.00
2018-04-16T17:20:49.788Z,54.20
2018-04-16T17:23:17.255Z,54.10
2018-04-16T17:25:44.708Z,54.30
2018-04-16T17:28:12.167Z,54.00
2018-04-16T17:30:39.666Z,53.90
2018-04-16T17:33:08.966Z,54.50
2018-04-16T17:35:43.837Z,54.50
2018-04-16T17:38:16.316Z,54.90
2018-04-16T17:40:45.120Z,54.80
2018-04-16T17:43:15.403Z,55.30
2018-04-16T17:46:00.283Z,55.40
2018-04-16T17:51:35.409Z,55.20
2018-04-16T17:54:03.730Z,55.60
2018-04-16T17:56:31.940Z,55.60
2018-04-16T17:59:00.234Z,56.20
2018-04-16T18:01:28.524Z,56.60
2018-04-16T18:03:56.962Z,57.20
2018-04-16T18:06:24.493Z,56.90
2018-04-16T18:08:52.047Z,57.30
2018-04-16T18:11:20.338Z,57.60
2018-04-16T18:13:48.669Z,57.90
2018-04-16T18:16:17.867Z,58.40
2018-04-16T18:18:46.138Z,58.80
2018-04-16T18:21:14.507Z,59.00
2018-04-16T18:23:42.767Z,59.50
2018-04-16T18:29:07.123Z,59.70
2018-04-16T18:31:35.580Z,60.40
2018-04-16T18:34:04.133Z,60.80
2018-04-16T18:36:31.699Z,61.50
2018-04-16T18:39:00.304Z,62.10
2018-04-16T18:41:27.904Z,63.10
2018-04-16T18:43:55.544Z,63.30
2018-04-16T18:46:23.034Z,63.80
2018-04-16T18:48:50.497Z,64.00
2018-04-16T18:51:17.960Z,63.90
2018-04-16T18:53:45.437Z,64.00
2018-04-16T18:56:12.897Z,64.20
2018-04-16T18:58:41.362Z,64.60
2018-04-16T19:01:08.966Z,64.50
2018-04-16T19:03:36.581Z,64.70
2018-04-16T19:06:04.050Z,64.40
2018-04-16T19:12:01.135Z,64.70
2018-04-16T19:14:28.563Z,65.00
2018-04-16T19:16:56.892Z,65.50
2018-04-16T19:19:24.381Z,65.40
2018-04-16T19:21:53.811Z,66.30
2018-04-16T19:24:22.041Z,67.50
2018-04-16T19:26:55.060Z,67.40
2018-04-16T19:29:22.533Z,68.10
2018-04-16T19:31:50.084Z,68.60
2018-04-16T19:34:24.065Z,70.50
2018-04-16T19:36:51.555Z,69.60
2018-04-16T19:39:19.016Z,70.30
2018-04-16T19:41:53.825Z,70.90
2018-04-16T19:44:22.297Z,70.80
2018-04-16T19:46:49.843Z,71.60
2018-04-16T19:49:22.978Z,71.90
2018-04-16T19:51:50.425Z,71.90
2018-04-16T19:54:17.937Z,72.30
2018-04-16T19:56:50.965Z,73.20
2018-04-16T19:59:18.613Z,73.20
2018-04-16T20:01:51.672Z,73.10
2018-04-16T20:04:19.235Z,74.00
2018-04-16T20:06:46.707Z,73.90
2018-04-16T20:09:14.162Z,74.50
2018-04-16T20:11:41.624Z,74.80
2018-04-16T20:14:09.109Z,75.20
2018-04-16T20:16:37.337Z,75.90
2018-04-16T20:19:04.798Z,75.90
2018-04-16T20:21:33.763Z,76.20
2018-04-16T20:24:01.628Z,76.30
2018-04-16T20:26:29.864Z,76.70
2018-04-16T20:28:57.834Z,76.90
2018-04-16T20:31:25.732Z,77.30
2018-04-16T20:33:53.590Z,77.70
2018-04-16T20:36:21.443Z,77.80
2018-04-16T20:38:50.909Z,78.30
2018-04-16T20:41:18.789Z,78.10
2018-04-16T20:43:46.630Z,78.40
2018-04-16T20:46:14.570Z,78.70
2018-04-16T20:48:42.374Z,79.20
2018-04-16T20:51:09.916Z,79.80
2018-04-16T20:53:37.370Z,79.50
2018-04-16T20:56:05.637Z,80.00
2018-04-16T20:58:35.229Z,80.00
2018-04-16T21:01:05.178Z,80.20
2018-04-16T21:03:36.702Z,80.70
2018-04-16T21:06:09.049Z,80.70
2018-04-16T21:12:38.977Z,81.10
2018-04-16T21:15:11.538Z,81.40
2018-04-16T21:20:22.418Z,81.70
2018-04-16T21:22:54.169Z,82.10
2018-04-16T21:25:26.576Z,82.60
2018-04-16T21:27:55.165Z,82.50
2018-04-16T21:30:22.748Z,82.70
2018-04-16T21:32:50.200Z,82.90
2018-04-16T21:35:17.699Z,83.50
2018-04-16T21:37:45.113Z,83.50
2018-04-16T21:40:12.596Z,83.70
2018-04-16T21:42:40.050Z,84.00
2018-04-16T21:45:07.496Z,84.10
2018-04-16T21:47:34.964Z,84.50
2018-04-16T21:50:08.260Z,84.50
2018-04-16T21:52:35.807Z,84.90
2018-04-16T21:55:03.270Z,85.00
2018-04-16T21:57:31.505Z,85.50
2018-04-16T21:59:59.001Z,85.60
2018-04-16T22:02:26.476Z,85.80
2018-04-16T22:04:53.956Z,86.20
2018-04-16T22:07:22.204Z,86.70
2018-04-16T22:09:51.684Z,86.70
2018-04-16T22:12:20.229Z,87.00
2018-04-16T22:14:47.764Z,87.50
2018-04-16T22:17:16.064Z,87.90
2018-04-16T22:19:44.593Z,87.80
2018-04-16T22:22:12.097Z,88.00
2018-04-16T22:24:41.304Z,88.70
2018-04-16T22:27:08.787Z,88.70
2018-04-16T22:29:36.317Z,88.70
2018-04-16T22:32:03.809Z,88.70
2018-04-16T22:34:31.280Z,88.70
2018-04-16T22:36:58.747Z,88.70
2018-04-16T22:39:27.084Z,89.00
2018-04-16T22:41:54.786Z,88.90
2018-04-16T22:44:22.315Z,89.40
2018-04-16T22:46:49.756Z,89.30
2018-04-16T22:49:18.039Z,90.10
2018-04-16T22:51:45.586Z,90.10
2018-04-16T22:54:16.584Z,90.30
2018-04-16T22:56:44.020Z,90.20
2018-04-16T22:59:11.479Z,90.20
2018-04-16T23:01:39.014Z,90.10
2018-04-16T23:04:06.478Z,90.30
2018-04-16T23:06:33.942Z,90.10
2018-04-16T23:09:01.404Z,90.10
2018-04-16T23:11:29.489Z,90.00
2018-04-16T23:13:57.003Z,90.00
2018-04-16T23:16:24.497Z,90.10
2018-04-16T23:18:51.938Z,90.10
2018-04-16T23:21:25.598Z,90.30
2018-04-16T23:23:57.473Z,90.30
2018-04-16T23:26:25.736Z,90.50
2018-04-16T23:28:56.767Z,90.50
2018-04-16T23:31:24.225Z,90.50
2018-04-16T23:33:52.634Z,90.50
2018-04-16T23:36:21.131Z,90.50
2018-04-16T23:38:48.596Z,90.60
2018-04-16T23:41:17.050Z,90.60
2018-04-16T23:43:44.537Z,90.60
2018-04-16T23:46:12.076Z,90.60
2018-04-16T23:48:39.535Z,90.60
2018-04-16T23:51:07.101Z,90.70
2018-04-16T23:53:34.612Z,90.80
2018-04-16T23:56:04.120Z,91.00
2018-04-16T23:58:31.655Z,90.90
